createdAt,value
2023-02-17T00:01:37.994Z,12.34
2023-02-17T00:04:06.253Z,12.32
2023-02-17T00:06:34.507Z,12.26
2023-02-17T00:09:02.553Z,12.20
2023-02-17T00:11:30.732Z,12.21
2023-02-17T00:14:00.213Z,12.16
2023-02-17T00:16:30.348Z,12.14
2023-02-17T00:19:00.612Z,12.16
2023-02-17T00:21:32.311Z,12.16
2023-02-17T00:24:01.464Z,12.11
2023-02-17T00:26:29.625Z,12.17
2023-02-17T00:28:59.390Z,12.08
2023-02-17T00:31:28.958Z,12.11
2023-02-17T00:34:00.010Z,12.08
2023-02-17T00:36:29.225Z,12.08
2023-02-17T00:38:58.516Z,12.09
2023-02-17T00:41:28.491Z,12.08
2023-02-17T00:43:58.932Z,12.07
2023-02-17T00:46:29.011Z,12.13
2023-02-17T00:48:57.347Z,12.08
2023-02-17T00:51:26.470Z,12.09
2023-02-17T00:53:54.468Z,12.03
2023-02-17T00:56:22.550Z,12.04
2023-02-17T00:58:50.589Z,12.03
2023-02-17T01:01:18.686Z,11.94
2023-02-17T01:03:48.077Z,11.96
2023-02-17T01:06:31.077Z,11.90
2023-02-17T01:08:59.208Z,11.91
2023-02-17T01:11:31.782Z,12.00
2023-02-17T01:14:06.138Z,11.99
2023-02-17T01:16:36.945Z,11.94
2023-02-17T01:19:09.071Z,11.94
2023-02-17T01:21:37.354Z,11.99
2023-02-17T01:24:08.514Z,12.04
2023-02-17T01:26:39.155Z,12.06
2023-02-17T01:29:08.530Z,12.03
2023-02-17T01:31:37.160Z,12.02
2023-02-17T01:34:06.801Z,12.02
2023-02-17T01:36:34.905Z,12.02
2023-02-17T01:39:02.943Z,11.94
2023-02-17T01:41:31.084Z,11.95
2023-02-17T01:44:17.790Z,12.04
2023-02-17T01:46:48.659Z,12.02
2023-02-17T01:49:29.716Z,12.06
2023-02-17T01:52:06.930Z,12.06
2023-02-17T01:54:41.821Z,12.06
2023-02-17T01:57:12.847Z,12.02
2023-02-17T01:59:42.741Z,12.02
2023-02-17T02:02:10.929Z,12.01
2023-02-17T02:04:44.408Z,12.02
2023-02-17T02:07:20.399Z,12.03
2023-02-17T02:09:53.897Z,12.03
2023-02-17T02:12:26.165Z,11.97
2023-02-17T02:14:56.909Z,11.88
2023-02-17T02:17:36.210Z,11.97
2023-02-17T02:21:03.780Z,11.86
2023-02-17T02:24:14.522Z,11.83
2023-02-17T02:27:22.915Z,11.72
2023-02-17T02:30:37.540Z,11.74
2023-02-17T02:33:14.755Z,11.90
2023-02-17T02:35:55.700Z,11.95
2023-02-17T02:38:30.044Z,11.87
2023-02-17T02:41:05.301Z,11.90
2023-02-17T02:43:33.651Z,11.95
2023-02-17T02:46:01.791Z,11.95
2023-02-17T02:48:31.634Z,11.95
2023-02-17T02:51:17.887Z,12.01
2023-02-17T02:54:17.351Z,12.10
2023-02-17T02:57:05.770Z,12.06
2023-02-17T02:59:51.764Z,12.11
2023-02-17T03:02:30.445Z,12.10
2023-02-17T03:05:08.708Z,12.09
2023-02-17T03:07:41.819Z,12.12
2023-02-17T03:10:11.024Z,12.12
2023-02-17T03:12:40.381Z,11.96
2023-02-17T03:15:16.755Z,11.94
2023-02-17T03:17:44.728Z,12.01
2023-02-17T03:20:15.751Z,11.98
2023-02-17T03:22:48.288Z,12.04
2023-02-17T03:25:17.454Z,12.03
2023-02-17T03:27:45.764Z,11.97
2023-02-17T03:30:15.986Z,11.93
2023-02-17T03:32:44.178Z,11.87
2023-02-17T03:35:12.226Z,11.87
2023-02-17T03:37:41.683Z,11.87
2023-02-17T03:40:11.283Z,11.87
2023-02-17T03:42:39.335Z,11.90
2023-02-17T03:45:08.098Z,11.88
2023-02-17T03:47:36.154Z,11.79
2023-02-17T03:50:04.790Z,11.79
2023-02-17T03:52:32.828Z,11.84
2023-02-17T03:55:02.116Z,11.87
2023-02-17T03:57:31.787Z,11.84
2023-02-17T03:59:59.796Z,11.86
2023-02-17T04:02:27.938Z,11.85
2023-02-17T04:04:55.954Z,11.84
2023-02-17T04:07:24.008Z,11.88
2023-02-17T04:09:52.065Z,11.86
2023-02-17T04:12:21.364Z,11.69
2023-02-17T04:14:49.405Z,11.66
2023-02-17T04:17:17.467Z,11.78
2023-02-17T04:19:45.506Z,11.75
2023-02-17T04:22:13.516Z,11.77
2023-02-17T04:24:41.688Z,11.74
2023-02-17T04:27:09.860Z,11.75
2023-02-17T04:29:39.217Z,11.75
2023-02-17T04:32:07.242Z,11.91
2023-02-17T04:34:35.363Z,11.93
2023-02-17T04:37:03.388Z,11.84
2023-02-17T04:39:31.413Z,11.90
2023-02-17T04:41:59.453Z,11.68
2023-02-17T04:44:27.490Z,11.85
2023-02-17T04:46:57.019Z,11.89
2023-02-17T04:49:25.032Z,11.90
2023-02-17T04:51:53.034Z,11.96
2023-02-17T04:54:22.711Z,11.97
2023-02-17T04:56:50.885Z,11.99
2023-02-17T04:59:18.909Z,12.08
2023-02-17T05:01:46.995Z,12.22
2023-02-17T05:04:16.336Z,12.11
2023-02-17T05:06:44.327Z,12.17
2023-02-17T05:09:12.372Z,12.22
2023-02-17T05:11:40.322Z,12.18
2023-02-17T05:14:08.347Z,12.22
2023-02-17T05:16:36.419Z,12.24
2023-02-17T05:19:04.764Z,12.32
2023-02-17T05:21:34.116Z,12.21
2023-02-17T05:24:02.196Z,12.20
2023-02-17T05:26:30.236Z,12.09
2023-02-17T05:28:58.372Z,12.13
2023-02-17T05:31:26.606Z,12.11
2023-02-17T05:33:55.160Z,12.16
2023-02-17T05:36:23.411Z,12.21
2023-02-17T05:38:52.863Z,12.12
2023-02-17T05:41:21.577Z,12.19
2023-02-17T05:43:49.959Z,12.20
2023-02-17T05:46:18.096Z,12.18
2023-02-17T05:48:46.334Z,12.11
2023-02-17T05:51:18.929Z,12.12
2023-02-17T05:53:46.973Z,12.18
2023-02-17T05:56:18.819Z,12.24
2023-02-17T05:58:46.901Z,12.35
2023-02-17T06:01:15.235Z,12.22
2023-02-17T06:03:43.252Z,12.23
2023-02-17T06:06:11.384Z,12.28
2023-02-17T06:08:39.655Z,12.38
2023-02-17T06:11:07.938Z,12.43
2023-02-17T06:13:37.512Z,12.42
2023-02-17T06:16:07.217Z,12.49
2023-02-17T06:18:35.413Z,12.54
2023-02-17T06:21:03.483Z,12.51
2023-02-17T06:23:31.565Z,12.54
2023-02-17T06:25:59.600Z,12.41
2023-02-17T06:28:27.724Z,12.47
2023-02-17T06:30:57.074Z,12.49
2023-02-17T06:33:25.108Z,12.48
2023-02-17T06:35:53.731Z,12.51
2023-02-17T06:38:21.830Z,12.49
2023-02-17T06:40:50.076Z,12.57
2023-02-17T06:43:18.173Z,12.57
2023-02-17T06:45:46.278Z,12.55
2023-02-17T06:48:15.674Z,12.57
2023-02-17T06:50:43.804Z,12.48
2023-02-17T06:53:12.004Z,12.59
2023-02-17T06:55:40.087Z,12.56
2023-02-17T06:58:08.330Z,12.42
2023-02-17T07:00:36.571Z,12.46
2023-02-17T07:03:04.774Z,12.53
2023-02-17T07:05:36.426Z,12.51
2023-02-17T07:08:05.357Z,12.59
2023-02-17T07:10:33.854Z,12.59
2023-02-17T07:13:02.034Z,12.56
2023-02-17T07:15:30.044Z,12.57
2023-02-17T07:17:58.050Z,12.55
2023-02-17T07:20:26.032Z,12.65
2023-02-17T07:22:55.528Z,12.66
2023-02-17T07:25:23.557Z,12.65
2023-02-17T07:27:51.716Z,12.65
2023-02-17T07:30:20.120Z,12.55
2023-02-17T07:32:48.202Z,12.63
2023-02-17T07:35:16.437Z,12.67
2023-02-17T07:37:44.417Z,12.64
2023-02-17T07:40:14.546Z,12.71
2023-02-17T07:42:42.591Z,12.71
2023-02-17T07:45:10.831Z,12.74
2023-02-17T07:47:38.839Z,12.64
2023-02-17T07:50:09.246Z,12.79
2023-02-17T07:52:37.288Z,12.80
2023-02-17T07:55:06.103Z,12.76
2023-02-17T07:57:35.506Z,12.82
2023-02-17T08:00:04.622Z,12.74
2023-02-17T08:02:40.900Z,12.72
2023-02-17T08:05:09.122Z,12.65
2023-02-17T08:07:37.164Z,12.69
2023-02-17T08:10:32.533Z,12.72
2023-02-17T08:13:20.266Z,12.65
2023-02-17T08:15:48.331Z,12.74
2023-02-17T08:18:16.304Z,12.81
2023-02-17T08:20:44.490Z,12.87
2023-02-17T08:23:12.644Z,12.95
2023-02-17T08:25:40.816Z,12.89
2023-02-17T08:28:12.306Z,12.97
2023-02-17T08:30:40.617Z,13.00
2023-02-17T08:33:08.696Z,12.91
2023-02-17T08:35:36.795Z,12.93
2023-02-17T08:38:04.856Z,12.95
2023-02-17T08:40:32.834Z,12.94
2023-02-17T08:43:03.410Z,13.06
2023-02-17T08:45:33.020Z,12.95
2023-02-17T08:48:01.050Z,12.91
2023-02-17T08:50:29.328Z,12.97
2023-02-17T08:52:57.405Z,13.11
2023-02-17T08:55:25.718Z,13.10
2023-02-17T08:57:54.091Z,13.04
2023-02-17T09:00:22.540Z,13.07
2023-02-17T09:02:52.308Z,13.08
2023-02-17T09:05:20.681Z,13.13
2023-02-17T09:07:48.746Z,13.21
2023-02-17T09:10:17.219Z,13.21
2023-02-17T09:12:45.253Z,13.16
2023-02-17T09:15:13.852Z,13.18
2023-02-17T09:17:42.621Z,13.21
2023-02-17T09:20:24.387Z,13.17
2023-02-17T09:22:53.226Z,13.23
2023-02-17T09:25:21.480Z,13.23
2023-02-17T09:27:49.553Z,13.25
2023-02-17T09:30:17.807Z,13.32
2023-02-17T09:32:46.361Z,13.44
2023-02-17T09:35:18.027Z,13.38
2023-02-17T09:37:46.480Z,13.34
2023-02-17T09:40:21.005Z,13.38
2023-02-17T09:42:49.303Z,13.51
2023-02-17T09:45:25.367Z,13.53
2023-02-17T09:47:56.875Z,13.64
2023-02-17T09:50:33.337Z,13.70
2023-02-17T09:53:10.358Z,13.77
2023-02-17T09:55:44.689Z,13.89
2023-02-17T09:58:18.427Z,13.89
2023-02-17T10:00:49.820Z,14.02
2023-02-17T10:03:25.932Z,14.12
2023-02-17T10:06:08.159Z,14.24
2023-02-17T10:08:43.686Z,14.23
2023-02-17T10:11:23.122Z,14.17
2023-02-17T10:13:53.680Z,14.13
2023-02-17T10:16:30.789Z,14.25
2023-02-17T10:19:06.558Z,14.31
2023-02-17T10:21:41.562Z,14.39
2023-02-17T10:24:09.636Z,14.42
2023-02-17T10:27:04.781Z,14.37
2023-02-17T10:29:46.932Z,14.43
2023-02-17T10:32:23.970Z,14.45
2023-02-17T10:35:14.586Z,14.45
2023-02-17T10:37:49.717Z,14.42
2023-02-17T10:40:22.507Z,14.50
2023-02-17T10:42:55.424Z,14.43
2023-02-17T10:45:31.619Z,14.61
2023-02-17T10:48:05.606Z,14.72
2023-02-17T10:50:34.284Z,14.70
2023-02-17T10:53:12.589Z,14.75
2023-02-17T10:55:51.841Z,14.83
2023-02-17T10:58:27.480Z,14.65
2023-02-17T11:00:57.514Z,14.69
2023-02-17T11:03:28.718Z,14.86
2023-02-17T11:05:59.519Z,14.88
2023-02-17T11:08:35.304Z,14.89
2023-02-17T11:11:30.488Z,15.03
2023-02-17T11:14:10.478Z,15.12
2023-02-17T11:16:42.290Z,15.05
2023-02-17T11:19:24.671Z,15.07
2023-02-17T11:21:54.796Z,15.19
2023-02-17T11:24:24.444Z,15.12
2023-02-17T11:27:01.837Z,15.02
2023-02-17T11:29:31.377Z,15.07
2023-02-17T11:32:04.283Z,15.08
2023-02-17T11:34:34.897Z,15.18
2023-02-17T11:37:17.016Z,15.09
2023-02-17T11:39:50.606Z,15.13
2023-02-17T11:42:26.739Z,15.13
2023-02-17T11:44:57.956Z,15.15
2023-02-17T11:47:36.242Z,15.12
2023-02-17T11:50:35.325Z,15.04
2023-02-17T11:53:24.950Z,15.04
2023-02-17T11:56:12.884Z,14.87
2023-02-17T11:59:13.574Z,15.04
2023-02-17T12:02:12.238Z,15.02
2023-02-17T12:04:51.846Z,14.99
2023-02-17T12:07:40.650Z,15.03
2023-02-17T12:10:20.404Z,15.09
2023-02-17T12:13:16.218Z,14.96
2023-02-17T12:15:57.801Z,14.98
2023-02-17T12:18:42.658Z,15.08
2023-02-17T12:21:19.591Z,15.18
2023-02-17T12:24:06.653Z,15.24
2023-02-17T12:26:40.737Z,15.29
2023-02-17T12:29:25.983Z,15.31
2023-02-17T12:32:18.996Z,15.24
2023-02-17T12:34:55.176Z,15.33
2023-02-17T12:37:26.581Z,15.31
2023-02-17T12:39:58.702Z,15.30
2023-02-17T12:42:33.111Z,15.28
2023-02-17T12:45:08.205Z,15.22
2023-02-17T12:47:45.196Z,15.35
2023-02-17T12:50:21.896Z,15.40
2023-02-17T12:52:54.911Z,15.44
2023-02-17T12:55:27.953Z,15.56
2023-02-17T12:58:00.456Z,15.56
2023-02-17T13:00:35.869Z,15.53
2023-02-17T13:03:05.716Z,15.59
2023-02-17T13:05:40.656Z,15.56
2023-02-17T13:08:15.453Z,15.73
2023-02-17T13:10:43.515Z,15.67
2023-02-17T13:13:14.479Z,15.60
2023-02-17T13:15:46.496Z,15.66
2023-02-17T13:18:27.975Z,15.64
2023-02-17T13:21:01.203Z,15.61
2023-02-17T13:23:38.329Z,15.53
2023-02-17T13:26:36.051Z,15.61
2023-02-17T13:29:23.034Z,15.74
2023-02-17T13:31:58.620Z,15.96
2023-02-17T13:34:33.950Z,16.05
2023-02-17T13:37:15.390Z,15.92
2023-02-17T13:39:44.013Z,16.03
2023-02-17T13:42:35.831Z,16.04
2023-02-17T13:45:12.874Z,16.14
2023-02-17T13:47:42.869Z,16.14
2023-02-17T13:50:36.459Z,16.07
2023-02-17T13:53:20.814Z,16.18
2023-02-17T13:55:48.893Z,16.10
2023-02-17T13:58:24.180Z,16.15
2023-02-17T14:00:53.807Z,16.15
2023-02-17T14:03:25.574Z,16.19
2023-02-17T14:05:56.288Z,16.30
2023-02-17T14:08:34.599Z,16.26
2023-02-17T14:11:10.016Z,16.38
2023-02-17T14:13:42.583Z,16.28
2023-02-17T14:16:31.274Z,16.26
2023-02-17T14:19:07.092Z,16.28
2023-02-17T14:21:35.855Z,16.17
2023-02-17T14:24:04.311Z,16.09
2023-02-17T14:26:38.896Z,16.00
2023-02-17T14:29:10.228Z,15.97
2023-02-17T14:31:39.988Z,15.93
2023-02-17T14:34:25.716Z,16.00
2023-02-17T14:36:53.904Z,15.83
2023-02-17T14:39:22.526Z,15.89
2023-02-17T14:41:50.642Z,15.79
2023-02-17T14:44:18.616Z,15.73
2023-02-17T14:46:46.735Z,15.75
2023-02-17T14:49:16.137Z,15.79
2023-02-17T14:51:44.238Z,15.78
2023-02-17T14:54:16.396Z,15.89
2023-02-17T14:56:49.339Z,15.94
2023-02-17T14:59:17.497Z,15.84
2023-02-17T15:01:45.658Z,15.91
2023-02-17T15:04:15.056Z,15.67
2023-02-17T15:06:46.256Z,15.80
2023-02-17T15:09:17.522Z,15.67
2023-02-17T15:11:48.773Z,15.61
2023-02-17T15:14:19.489Z,15.43
2023-02-17T15:16:49.115Z,15.59
2023-02-17T15:19:18.958Z,15.52
2023-02-17T15:21:49.349Z,15.44
2023-02-17T15:24:20.528Z,15.40
2023-02-17T15:26:48.906Z,15.33
2023-02-17T15:29:19.327Z,15.45
2023-02-17T15:31:48.837Z,15.31
2023-02-17T15:34:25.088Z,15.35
2023-02-17T15:38:31.947Z,15.20
2023-02-17T15:42:39.479Z,15.10
2023-02-17T15:45:11.391Z,15.12
2023-02-17T15:47:40.759Z,15.09
2023-02-17T15:50:20.510Z,15.15
2023-02-17T15:52:49.588Z,15.13
2023-02-17T15:55:18.951Z,15.19
2023-02-17T15:57:49.795Z,15.10
2023-02-17T16:00:22.456Z,15.03
2023-02-17T16:02:50.991Z,15.07
2023-02-17T16:05:23.256Z,15.12
2023-02-17T16:07:51.892Z,15.00
2023-02-17T16:10:26.509Z,15.05
2023-02-17T16:12:58.217Z,15.06
2023-02-17T16:15:29.388Z,15.02
2023-02-17T16:17:58.562Z,15.02
2023-02-17T16:20:34.495Z,15.02
2023-02-17T16:23:04.551Z,14.95
2023-02-17T16:25:32.555Z,14.94
2023-02-17T16:28:00.624Z,15.01
2023-02-17T16:30:33.289Z,14.99
2023-02-17T16:33:02.562Z,15.02
2023-02-17T16:35:33.401Z,14.99
2023-02-17T16:38:06.146Z,15.05
2023-02-17T16:40:38.202Z,15.01
2023-02-17T16:43:06.307Z,14.95
2023-02-17T16:45:35.276Z,14.99
2023-02-17T16:48:03.398Z,14.97
2023-02-17T16:50:35.250Z,14.97
2023-02-17T16:53:08.672Z,14.93
2023-02-17T16:55:37.802Z,14.92
2023-02-17T16:58:15.258Z,14.97
2023-02-17T17:00:44.711Z,14.96
2023-02-17T17:03:13.044Z,15.00
2023-02-17T17:05:43.224Z,14.89
2023-02-17T17:08:16.026Z,14.91
2023-02-17T17:10:45.582Z,14.96
2023-02-17T17:13:14.899Z,14.93
2023-02-17T17:15:45.816Z,14.91
2023-02-17T17:18:39.133Z,14.83
2023-02-17T17:21:15.233Z,14.66
2023-02-17T17:23:46.271Z,14.79
2023-02-17T17:26:23.730Z,14.85
2023-02-17T17:33:53.445Z,14.63
2023-02-17T17:36:29.741Z,14.65
2023-02-17T17:38:59.056Z,14.74
2023-02-17T17:41:29.824Z,14.77
2023-02-17T17:43:58.796Z,14.67
2023-02-17T17:46:29.883Z,14.65
2023-02-17T17:48:59.549Z,14.66
2023-02-17T17:51:31.451Z,14.77
2023-02-17T17:54:00.527Z,14.73
2023-02-17T17:56:31.137Z,14.69
2023-02-17T17:59:02.380Z,14.72
2023-02-17T18:01:30.532Z,14.74
2023-02-17T18:04:00.628Z,14.71
2023-02-17T18:06:36.198Z,14.70
2023-02-17T18:09:07.529Z,14.69
2023-02-17T18:11:37.788Z,14.65
2023-02-17T18:14:11.966Z,14.75
2023-02-17T18:16:41.848Z,14.69
2023-02-17T18:19:09.997Z,14.73
2023-02-17T18:21:40.274Z,14.65
2023-02-17T18:24:08.796Z,14.71
2023-02-17T18:26:36.896Z,14.77
2023-02-17T18:29:05.468Z,14.71
2023-02-17T18:31:33.660Z,14.70
2023-02-17T18:34:01.803Z,14.75
2023-02-17T18:36:29.814Z,14.72
2023-02-17T18:38:59.245Z,14.76
2023-02-17T18:41:30.010Z,14.82
2023-02-17T18:44:00.044Z,14.89
2023-02-17T18:46:29.759Z,14.91
2023-02-17T18:48:58.197Z,14.77
2023-02-17T18:51:27.683Z,14.87
2023-02-17T18:53:59.515Z,14.91
2023-02-17T18:56:30.552Z,14.91
2023-02-17T18:59:00.444Z,14.87
2023-02-17T19:01:32.086Z,14.97
2023-02-17T19:04:04.773Z,14.88
2023-02-17T19:06:35.057Z,15.06
2023-02-17T19:09:05.345Z,15.03
2023-02-17T19:11:34.754Z,15.05
2023-02-17T19:16:56.580Z,14.88
2023-02-17T19:22:22.613Z,14.78
2023-02-17T19:24:54.935Z,14.87
2023-02-17T19:27:23.132Z,14.89
2023-02-17T19:29:51.157Z,14.90
2023-02-17T19:32:19.605Z,14.86
2023-02-17T19:34:47.705Z,14.78
2023-02-17T19:37:16.771Z,14.65
2023-02-17T19:39:45.443Z,14.73
2023-02-17T19:42:15.047Z,14.68
2023-02-17T19:44:43.082Z,14.67
2023-02-17T19:47:36.518Z,14.70
2023-02-17T19:50:04.752Z,14.65
2023-02-17T19:52:33.089Z,14.51
2023-02-17T19:55:01.173Z,14.52
2023-02-17T19:57:30.748Z,14.45
2023-02-17T19:59:59.729Z,14.15
2023-02-17T20:02:28.768Z,14.21
2023-02-17T20:04:56.896Z,14.26
2023-02-17T20:07:25.072Z,14.33
2023-02-17T20:09:53.158Z,14.38
2023-02-17T20:12:21.688Z,14.30
2023-02-17T20:14:52.823Z,14.13
2023-02-17T20:17:20.842Z,14.17
2023-02-17T20:19:48.826Z,14.28
2023-02-17T20:22:17.054Z,14.11
2023-02-17T20:24:45.102Z,14.18
2023-02-17T20:27:13.193Z,14.19
2023-02-17T20:29:41.305Z,14.16
2023-02-17T20:32:10.751Z,14.08
2023-02-17T20:34:40.638Z,14.11
2023-02-17T20:37:10.284Z,14.14
2023-02-17T20:39:40.764Z,14.17
2023-02-17T20:42:09.815Z,14.12
2023-02-17T20:44:39.227Z,13.95
2023-02-17T20:47:07.573Z,13.91
2023-02-17T20:49:37.204Z,14.00
2023-02-17T20:52:06.463Z,13.97
2023-02-17T20:54:34.641Z,14.01
2023-02-17T20:57:02.808Z,14.02
2023-02-17T20:59:30.857Z,14.04
2023-02-17T21:01:58.922Z,13.97
2023-02-17T21:04:27.067Z,14.02
2023-02-17T21:06:56.383Z,13.84
2023-02-17T21:09:51.772Z,13.89
2023-02-17T21:12:20.226Z,13.75
2023-02-17T21:14:50.375Z,13.76
2023-02-17T21:17:19.661Z,13.89
2023-02-17T21:19:48.602Z,13.87
2023-02-17T21:22:18.095Z,13.88
2023-02-17T21:24:46.290Z,13.87
2023-02-17T21:27:14.729Z,13.83
2023-02-17T21:29:42.693Z,13.88
2023-02-17T21:32:11.056Z,13.92
2023-02-17T21:34:39.526Z,13.95
2023-02-17T21:37:09.008Z,14.10
2023-02-17T21:39:38.727Z,13.96
2023-02-17T21:42:07.608Z,14.00
2023-02-17T21:44:55.081Z,13.96
2023-02-17T21:47:24.369Z,14.07
2023-02-17T21:49:55.646Z,13.96
2023-02-17T21:52:23.957Z,14.02
2023-02-17T21:54:53.396Z,14.24
2023-02-17T21:57:21.410Z,14.20
2023-02-17T21:59:49.446Z,14.30
2023-02-17T22:02:17.502Z,14.24
2023-02-17T22:04:45.533Z,14.23
2023-02-17T22:07:13.633Z,14.14
2023-02-17T22:09:41.624Z,14.30
2023-02-17T22:12:11.008Z,14.27
2023-02-17T22:14:39.165Z,14.31
2023-02-17T22:17:07.149Z,14.31
2023-02-17T22:19:35.150Z,14.40
2023-02-17T22:22:03.697Z,14.35
2023-02-17T22:24:31.821Z,14.39
2023-02-17T22:26:59.907Z,14.42
2023-02-17T22:29:29.343Z,14.25
2023-02-17T22:31:57.711Z,14.31
2023-02-17T22:34:27.475Z,14.18
2023-02-17T22:36:55.554Z,14.37
2023-02-17T22:39:23.584Z,14.43
2023-02-17T22:41:51.729Z,14.37
2023-02-17T22:44:19.916Z,14.23
2023-02-17T22:46:49.420Z,14.28
2023-02-17T22:49:17.466Z,14.24
2023-02-17T22:51:45.557Z,14.27
2023-02-17T22:54:13.533Z,14.32
2023-02-17T22:56:41.585Z,14.41
2023-02-17T22:59:11.577Z,14.34
2023-02-17T23:02:58.685Z,14.36
2023-02-17T23:05:28.155Z,14.42
2023-02-17T23:07:56.796Z,14.41
2023-02-17T23:10:24.790Z,14.39
2023-02-17T23:12:52.881Z,14.55
2023-02-17T23:15:40.263Z,14.50
2023-02-17T23:18:09.946Z,14.37
2023-02-17T23:20:42.854Z,14.36
2023-02-17T23:23:11.130Z,14.31
2023-02-17T23:25:41.968Z,14.41
2023-02-17T23:28:10.893Z,14.40
2023-02-17T23:30:39.119Z,14.40
2023-02-17T23:33:07.314Z,14.43
2023-02-17T23:35:39.248Z,14.37
2023-02-17T23:38:08.827Z,14.41
2023-02-17T23:40:37.903Z,14.28
2023-02-17T23:43:06.436Z,14.24
2023-02-17T23:45:35.282Z,14.23
2023-02-17T23:48:03.517Z,14.25
2023-02-17T23:50:31.485Z,14.30
2023-02-17T23:53:02.897Z,14.28
2023-02-17T23:55:32.357Z,14.19
2023-02-17T23:58:00.873Z,14.20
